Lake Superior Provincial Park, Ontario

Past 24 Hour Conditions

This table is a summary of hourly weather conditions for the past 24 hours. This summary includes the following parameters: temperature, humidity, dew point, wind speed and direction, air pressure, visibility and/or wind chill and humidex.
Date / Time
(EDT)
Conditions Temp (°F) Humidity (%) Dew Point (°F) Wind (mph) Pressure (inches) Vis (mi) Humidex
01 September 2014
14:00 N/A 66 94 64 S 2 29.6 N/A *
13:00 N/A 66 94 64 SSW 5 29.6 N/A *
12:00 N/A 67 90 64 S 7 29.6 N/A *
11:00 N/A 68 85 64 S 6 gust 18 29.6 N/A 78
10:00 N/A 69   85 64 SSE 4 29.6 N/A 79
9:00 N/A 65 90 62 S 6 29.7 N/A *
8:00 N/A 66 85 61 S 8 29.7 N/A *
7:00 N/A 64 91 61 SSE 8 29.7 N/A *
6:00 N/A 64 91 61 SSE 5 29.7 N/A *
5:00 N/A 62 94 60 SSE 4 29.7 N/A *
4:00 N/A 61 94 60 S 5 29.8 N/A *
3:00 N/A 60 95 58 S 5 29.8 N/A *
2:00 N/A 59 96 58 S 6 29.8 N/A *
1:00 N/A 58 97 57 S 3 29.9 N/A *
00:00 N/A 57 97 56 S 3 29.8 N/A *
31 August 2014
23:00 N/A 57 98 57 S 3 29.8 N/A *
22:00 N/A 54   95 53 S 2 29.9 N/A *
21:00 N/A 57 93 54 calm 29.9 N/A *
20:00 N/A 61 86 57 SSE 2 29.9 N/A *
19:00 N/A 63 84 58 SE 3 29.9 N/A *
18:00 N/A 63 82 57 SSE 3 29.9 N/A *
17:00 N/A 63 82 57 S 3 29.9 N/A *
16:00 N/A 63 79 56 ESE 4 29.9 N/A *
15:00 N/A 62 79 56 E 7 29.9 N/A *
14:00 N/A 61 83 56 ESE 3 29.9 N/A *
N/A
Not available
 ↑ 
Highest temperature
 ↓ 
Lowest temperature
*
Value not significant.

If you require additional historical weather information, please visit Climate Data Online.